createdAt,value
2023-02-11T00:01:07.892Z,103282.94
2023-02-11T00:03:36.355Z,103283.09
2023-02-11T00:06:04.930Z,103284.03
2023-02-11T00:08:32.045Z,103272.56
2023-02-11T00:11:00.048Z,103275.97
2023-02-11T00:13:30.787Z,103273.59
2023-02-11T00:16:00.268Z,103275.97
2023-02-11T00:18:27.810Z,103276.09
2023-02-11T00:20:55.346Z,103265.88
2023-02-11T00:23:22.056Z,103263.81
2023-02-11T00:25:48.940Z,103267.50
2023-02-11T00:28:16.016Z,103259.50
2023-02-11T00:30:43.017Z,103262.19
2023-02-11T00:33:10.369Z,103269.03
2023-02-11T00:35:38.665Z,103274.94
2023-02-11T00:38:07.182Z,103267.66
2023-02-11T00:40:34.951Z,103272.41
2023-02-11T00:43:02.416Z,103271.63
2023-02-11T00:45:30.828Z,103257.13
2023-02-11T00:47:57.925Z,103259.44
2023-02-11T00:50:25.869Z,103253.44
2023-02-11T00:52:54.266Z,103246.31
2023-02-11T00:55:21.894Z,103248.06
2023-02-11T00:57:49.320Z,103250.91
2023-02-11T01:00:17.760Z,103257.47
2023-02-11T01:02:44.607Z,103253.44
2023-02-11T01:05:11.576Z,103255.06
2023-02-11T01:07:39.004Z,103255.94
2023-02-11T01:10:06.275Z,103261.44
2023-02-11T01:12:36.287Z,103261.75
2023-02-11T01:15:04.006Z,103252.41
2023-02-11T01:17:30.761Z,103259.22
2023-02-11T01:19:57.639Z,103253.13
2023-02-11T01:22:25.014Z,103270.63
2023-02-11T01:24:51.611Z,103267.22
2023-02-11T01:27:19.637Z,103258.16
2023-02-11T01:29:46.381Z,103258.31
2023-02-11T01:32:13.274Z,103260.91
2023-02-11T01:34:41.946Z,103272.41
2023-02-11T01:37:09.894Z,103282.38
2023-02-11T01:39:36.671Z,103282.38
2023-02-11T01:42:03.855Z,103265.16
2023-02-11T01:44:35.339Z,103271.28
2023-02-11T01:47:04.846Z,103260.09
2023-02-11T01:49:33.524Z,103253.69
2023-02-11T01:52:14.896Z,103236.59
2023-02-11T01:55:01.538Z,103244.09
2023-02-11T01:57:30.919Z,103236.31
2023-02-11T02:00:14.960Z,103228.69
2023-02-11T02:02:46.635Z,103243.16
2023-02-11T02:05:16.633Z,103227.50
2023-02-11T02:07:52.656Z,103235.09
2023-02-11T02:10:22.448Z,103236.84
2023-02-11T02:12:50.244Z,103231.50
2023-02-11T02:15:26.215Z,103233.16
2023-02-11T02:17:59.021Z,103233.22
2023-02-11T02:20:39.815Z,103231.66
2023-02-11T02:23:15.946Z,103223.66
2023-02-11T02:26:10.016Z,103238.19
2023-02-11T02:29:08.882Z,103216.69
2023-02-11T02:31:58.015Z,103212.53
2023-02-11T02:34:48.865Z,103216.84
2023-02-11T02:37:27.269Z,103217.78
2023-02-11T02:39:57.471Z,103222.41
2023-02-11T02:42:26.462Z,103225.56
2023-02-11T02:44:55.885Z,103214.16
2023-02-11T02:47:22.742Z,103210.59
2023-02-11T02:49:49.889Z,103221.06
2023-02-11T02:52:30.183Z,103219.19
2023-02-11T02:55:00.549Z,103213.88
2023-02-11T02:57:42.204Z,103220.97
2023-02-11T03:00:08.809Z,103201.03
2023-02-11T03:02:35.739Z,103206.91
2023-02-11T03:05:06.385Z,103206.91
2023-02-11T03:07:52.050Z,103206.78
2023-02-11T03:10:45.898Z,103200.09
2023-02-11T03:13:16.816Z,103185.88
2023-02-11T03:15:46.155Z,103178.00
2023-02-11T03:18:15.069Z,103180.38
2023-02-11T03:20:43.418Z,103177.25
2023-02-11T03:23:13.815Z,103190.75
2023-02-11T03:25:45.717Z,103208.09
2023-02-11T03:28:15.692Z,103205.75
2023-02-11T03:30:47.095Z,103196.78
2023-02-11T03:33:21.721Z,103194.31
2023-02-11T03:36:00.436Z,103194.22
2023-02-11T03:38:32.451Z,103198.53
2023-02-11T03:41:01.820Z,103194.78
2023-02-11T03:43:34.098Z,103193.88
2023-02-11T03:46:02.241Z,103198.94
2023-02-11T03:48:36.429Z,103193.00
2023-02-11T03:51:06.937Z,103188.56
2023-02-11T03:53:35.013Z,103188.69
2023-02-11T03:56:05.072Z,103188.84
2023-02-11T03:58:32.213Z,103183.56
2023-02-11T04:00:59.302Z,103188.75
2023-02-11T04:03:26.075Z,103185.97
2023-02-11T04:05:53.105Z,103177.19
2023-02-11T04:08:20.622Z,103179.00
2023-02-11T04:10:48.093Z,103171.97
2023-02-11T04:13:15.797Z,103167.53
2023-02-11T04:15:42.943Z,103169.94
2023-02-11T04:18:10.484Z,103175.66
2023-02-11T04:20:38.007Z,103183.00
2023-02-11T04:23:05.060Z,103180.84
2023-02-11T04:25:31.987Z,103180.72
2023-02-11T04:27:58.963Z,103199.00
2023-02-11T04:30:25.765Z,103205.00
2023-02-11T04:32:54.247Z,103201.44
2023-02-11T04:35:21.238Z,103192.69
2023-02-11T04:37:48.428Z,103201.50
2023-02-11T04:40:16.720Z,103207.50
2023-02-11T04:42:44.577Z,103225.59
2023-02-11T04:45:11.484Z,103216.16
2023-02-11T04:47:38.752Z,103221.28
2023-02-11T04:50:06.427Z,103217.00
2023-02-11T04:52:34.864Z,103203.94
2023-02-11T04:55:02.194Z,103210.03
2023-02-11T04:57:29.964Z,103207.19
2023-02-11T04:59:56.932Z,103200.81
2023-02-11T05:02:23.705Z,103192.97
2023-02-11T05:04:50.888Z,103185.13
2023-02-11T05:07:18.274Z,103192.97
2023-02-11T05:09:45.696Z,103190.44
2023-02-11T05:12:12.731Z,103199.88
2023-02-11T05:14:40.202Z,103196.31
2023-02-11T05:17:07.427Z,103200.50
2023-02-11T05:19:34.865Z,103198.00
2023-02-11T05:22:03.337Z,103202.31
2023-02-11T05:24:31.715Z,103193.56
2023-02-11T05:26:58.646Z,103195.47
2023-02-11T05:29:25.404Z,103197.28
2023-02-11T05:31:52.575Z,103193.88
2023-02-11T05:34:19.689Z,103195.63
2023-02-11T05:36:46.628Z,103186.16
2023-02-11T05:39:14.081Z,103180.06
2023-02-11T05:41:41.323Z,103177.34
2023-02-11T05:44:08.694Z,103173.78
2023-02-11T05:46:35.443Z,103184.31
2023-02-11T05:49:02.638Z,103184.25
2023-02-11T05:51:29.429Z,103194.03
2023-02-11T05:53:56.496Z,103185.13
2023-02-11T05:56:23.441Z,103180.06
2023-02-11T05:58:50.491Z,103176.03
2023-02-11T06:01:17.285Z,103180.91
2023-02-11T06:03:43.999Z,103174.03
2023-02-11T06:06:11.842Z,103166.25
2023-02-11T06:08:39.465Z,103169.72
2023-02-11T06:11:06.654Z,103180.56
2023-02-11T06:13:33.744Z,103182.25
2023-02-11T06:16:02.187Z,103185.75
2023-02-11T06:18:29.569Z,103183.97
2023-02-11T06:20:56.675Z,103187.50
2023-02-11T06:23:23.325Z,103190.78
2023-02-11T06:25:50.668Z,103195.97
2023-02-11T06:28:17.653Z,103185.00
2023-02-11T06:30:44.619Z,103184.59
2023-02-11T06:33:11.847Z,103191.94
2023-02-11T06:35:39.508Z,103182.31
2023-02-11T06:38:06.466Z,103186.59
2023-02-11T06:40:33.759Z,103196.25
2023-02-11T06:43:00.995Z,103190.94
2023-02-11T06:45:28.559Z,103190.94
2023-02-11T06:47:55.123Z,103194.31
2023-02-11T06:50:22.460Z,103193.66
2023-02-11T06:52:49.472Z,103189.44
2023-02-11T06:55:16.983Z,103192.97
2023-02-11T06:57:43.880Z,103196.41
2023-02-11T07:00:10.749Z,103198.84
2023-02-11T07:02:38.158Z,103201.88
2023-02-11T07:05:06.242Z,103198.41
2023-02-11T07:07:34.291Z,103201.59
2023-02-11T07:10:03.210Z,103192.31
2023-02-11T07:12:30.936Z,103203.66
2023-02-11T07:14:58.343Z,103204.63
2023-02-11T07:17:25.584Z,103204.47
2023-02-11T07:19:52.918Z,103208.03
2023-02-11T07:22:19.756Z,103205.44
2023-02-11T07:24:47.519Z,103222.78
2023-02-11T07:27:14.202Z,103211.59
2023-02-11T07:29:41.915Z,103226.31
2023-02-11T07:32:09.007Z,103219.19
2023-02-11T07:34:37.087Z,103215.66
2023-02-11T07:37:04.307Z,103222.63
2023-02-11T07:39:31.439Z,103220.84
2023-02-11T07:41:58.461Z,103224.56
2023-02-11T07:44:25.658Z,103230.78
2023-02-11T07:46:53.272Z,103235.09
2023-02-11T07:49:20.154Z,103233.31
2023-02-11T07:51:49.018Z,103234.75
2023-02-11T07:54:15.991Z,103227.22
2023-02-11T07:56:42.641Z,103236.69
2023-02-11T07:59:10.563Z,103234.34
2023-02-11T08:01:38.577Z,103221.53
2023-02-11T08:04:05.635Z,103226.91
2023-02-11T08:06:34.302Z,103225.44
2023-02-11T08:09:07.864Z,103232.56
2023-02-11T08:11:35.799Z,103230.78
2023-02-11T08:14:02.734Z,103235.69
2023-02-11T08:16:31.004Z,103241.00
2023-02-11T08:18:59.728Z,103242.72
2023-02-11T08:21:27.408Z,103241.00
2023-02-11T08:23:54.079Z,103246.34
2023-02-11T08:26:23.018Z,103257.03
2023-02-11T08:28:50.828Z,103257.03
2023-02-11T08:31:18.580Z,103251.84
2023-02-11T08:33:46.613Z,103250.19
2023-02-11T08:36:15.317Z,103253.63
2023-02-11T08:38:42.289Z,103262.50
2023-02-11T08:41:09.476Z,103262.22
2023-02-11T08:43:36.756Z,103265.75
2023-02-11T08:46:03.910Z,103262.34
2023-02-11T08:48:31.414Z,103261.03
2023-02-11T08:50:58.475Z,103257.59
2023-02-11T08:53:26.326Z,103262.78
2023-02-11T08:55:53.886Z,103262.50
2023-02-11T08:58:21.241Z,103261.19
2023-02-11T09:00:49.552Z,103263.69
2023-02-11T09:03:17.360Z,103266.81
2023-02-11T09:05:45.689Z,103277.19
2023-02-11T09:08:12.933Z,103275.00
2023-02-11T09:10:40.175Z,103276.09
2023-02-11T09:13:07.099Z,103292.44
2023-02-11T09:15:34.811Z,103288.28
2023-02-11T09:18:01.847Z,103284.88
2023-02-11T09:20:29.022Z,103294.00
2023-02-11T09:22:57.390Z,103290.88
2023-02-11T09:25:24.616Z,103291.97
2023-02-11T09:27:52.349Z,103291.81
2023-02-11T09:30:19.591Z,103298.06
2023-02-11T09:32:46.527Z,103295.69
2023-02-11T09:35:13.748Z,103308.16
2023-02-11T09:37:40.619Z,103306.34
2023-02-11T09:40:07.605Z,103305.22
2023-02-11T09:51:34.451Z,103311.84
2023-02-11T09:54:05.984Z,103315.84
2023-02-11T09:56:33.361Z,103317.72
2023-02-11T09:59:00.909Z,103321.03
2023-02-11T10:01:38.723Z,103322.03
2023-02-11T10:04:14.713Z,103320.59
2023-02-11T10:07:04.825Z,103328.69
2023-02-11T10:09:34.328Z,103326.16
2023-02-11T10:12:01.222Z,103329.03
2023-02-11T10:14:47.787Z,103336.97
2023-02-11T10:17:32.593Z,103325.69
2023-02-11T10:20:26.839Z,103330.16
2023-02-11T10:22:54.418Z,103329.53
2023-02-11T10:25:26.055Z,103323.81
2023-02-11T10:27:55.375Z,103322.41
2023-02-11T10:30:31.132Z,103331.16
2023-02-11T10:33:01.166Z,103336.22
2023-02-11T10:35:28.035Z,103347.47
2023-02-11T10:37:55.767Z,103342.94
2023-02-11T10:40:24.411Z,103350.06
2023-02-11T10:42:55.479Z,103340.47
2023-02-11T10:45:25.347Z,103352.78
2023-02-11T10:47:52.654Z,103343.97
2023-02-11T10:50:21.086Z,103344.09
2023-02-11T10:52:48.158Z,103352.25
2023-02-11T10:55:16.544Z,103341.63
2023-02-11T10:57:50.514Z,103348.81
2023-02-11T11:00:17.563Z,103350.59
2023-02-11T11:02:44.754Z,103352.41
2023-02-11T11:05:16.748Z,103350.34
2023-02-11T11:07:52.657Z,103352.66
2023-02-11T11:10:37.074Z,103355.81
2023-02-11T11:13:03.950Z,103349.34
2023-02-11T11:15:32.134Z,103354.50
2023-02-11T11:18:28.631Z,103354.81
2023-02-11T11:20:55.882Z,103364.28
2023-02-11T11:23:24.759Z,103364.94
2023-02-11T11:26:00.613Z,103367.69
2023-02-11T11:28:29.081Z,103360.34
2023-02-11T11:30:56.946Z,103360.03
2023-02-11T11:33:28.958Z,103359.31
2023-02-11T11:35:57.889Z,103367.28
2023-02-11T11:38:25.454Z,103354.50
2023-02-11T11:41:10.466Z,103357.28
2023-02-11T11:43:37.797Z,103359.22
2023-02-11T11:46:07.201Z,103357.41
2023-02-11T11:48:50.081Z,103353.31
2023-02-11T11:51:17.556Z,103344.72
2023-02-11T11:53:50.245Z,103354.00
2023-02-11T11:56:32.356Z,103348.94
2023-02-11T11:59:17.094Z,103351.81
2023-02-11T12:01:47.229Z,103351.28
2023-02-11T12:04:24.192Z,103349.19
2023-02-11T12:07:00.144Z,103351.16
2023-02-11T12:09:46.441Z,103352.94
2023-02-11T12:12:32.672Z,103337.47
2023-02-11T12:15:15.416Z,103342.66
2023-02-11T12:17:48.648Z,103351.38
2023-02-11T12:20:18.061Z,103363.47
2023-02-11T12:23:00.402Z,103352.94
2023-02-11T12:25:37.587Z,103351.41
2023-02-11T12:28:04.540Z,103356.19
2023-02-11T12:30:43.906Z,103353.66
2023-02-11T12:33:17.775Z,103345.94
2023-02-11T12:35:57.655Z,103348.81
2023-02-11T12:38:24.251Z,103353.34
2023-02-11T12:40:59.207Z,103341.00
2023-02-11T12:43:28.780Z,103336.19
2023-02-11T12:46:03.869Z,103332.66
2023-02-11T12:48:30.773Z,103340.66
2023-02-11T12:51:01.542Z,103334.69
2023-02-11T12:53:28.498Z,103343.31
2023-02-11T12:55:59.286Z,103333.03
2023-02-11T12:58:44.196Z,103334.56
2023-02-11T13:01:17.412Z,103319.31
2023-02-11T13:03:50.426Z,103320.09
2023-02-11T13:06:37.359Z,103315.28
2023-02-11T13:09:06.078Z,103311.06
2023-02-11T13:11:39.421Z,103310.22
2023-02-11T13:14:14.048Z,103322.75
2023-02-11T13:16:42.793Z,103321.09
2023-02-11T13:19:13.098Z,103330.97
2023-02-11T13:21:58.694Z,103322.34
2023-02-11T13:24:25.666Z,103322.47
2023-02-11T13:27:18.759Z,103322.47
2023-02-11T13:30:05.168Z,103321.66
2023-02-11T13:32:51.252Z,103317.16
2023-02-11T13:35:28.116Z,103325.41
2023-02-11T13:37:55.818Z,103331.97
2023-02-11T13:40:23.585Z,103333.25
2023-02-11T13:42:52.329Z,103336.31
2023-02-11T13:45:28.636Z,103342.66
2023-02-11T13:48:02.926Z,103337.78
2023-02-11T13:50:32.529Z,103342.13
2023-02-11T13:53:01.356Z,103331.94
2023-02-11T13:55:29.290Z,103321.47
2023-02-11T13:58:08.294Z,103325.78
2023-02-11T14:00:34.973Z,103323.38
2023-02-11T14:03:29.811Z,103327.91
2023-02-11T14:06:27.971Z,103334.81
2023-02-11T14:09:09.800Z,103329.94
2023-02-11T14:11:56.201Z,103322.19
2023-02-11T14:14:28.002Z,103318.22
2023-02-11T14:17:00.446Z,103310.94
2023-02-11T14:19:32.006Z,103317.06
2023-02-11T14:22:03.757Z,103321.56
2023-02-11T14:24:31.194Z,103328.91
2023-02-11T14:27:11.299Z,103319.50
2023-02-11T14:29:40.964Z,103309.66
2023-02-11T14:32:08.379Z,103310.25
2023-02-11T14:34:41.200Z,103314.69
2023-02-11T14:37:20.204Z,103311.63
2023-02-11T14:39:54.664Z,103322.72
2023-02-11T14:42:23.245Z,103315.91
2023-02-11T14:44:51.545Z,103313.81
2023-02-11T14:47:20.925Z,103318.78
2023-02-11T14:49:48.704Z,103313.34
2023-02-11T14:52:34.400Z,103323.06
2023-02-11T14:55:17.978Z,103328.28
2023-02-11T14:57:45.754Z,103327.31
2023-02-11T15:00:21.188Z,103326.06
2023-02-11T15:02:48.400Z,103326.19
2023-02-11T15:05:29.032Z,103322.72
2023-02-11T15:07:59.670Z,103326.06
2023-02-11T15:10:26.820Z,103326.06
2023-02-11T15:12:53.973Z,103326.78
2023-02-11T15:15:20.783Z,103331.03
2023-02-11T15:17:47.583Z,103331.88
2023-02-11T15:20:24.557Z,103332.81
2023-02-11T15:22:54.347Z,103335.41
2023-02-11T15:25:22.873Z,103327.72
2023-02-11T15:27:51.276Z,103331.22
2023-02-11T15:30:24.245Z,103330.19
2023-02-11T15:32:59.271Z,103327.59
2023-02-11T15:35:28.644Z,103334.47
2023-02-11T15:37:57.299Z,103334.81
2023-02-11T15:40:27.873Z,103334.59
2023-02-11T15:43:04.602Z,103332.69
2023-02-11T15:45:53.859Z,103331.03
2023-02-11T15:48:38.583Z,103334.59
2023-02-11T15:51:12.578Z,103326.91
2023-02-11T15:53:43.317Z,103338.94
2023-02-11T15:56:13.469Z,103342.91
2023-02-11T15:58:41.579Z,103346.41
2023-02-11T16:01:08.957Z,103353.28
2023-02-11T16:03:35.733Z,103347.84
2023-02-11T16:06:39.343Z,103349.47
2023-02-11T16:09:21.769Z,103346.06
2023-02-11T16:11:48.858Z,103347.72
2023-02-11T16:14:36.958Z,103356.47
2023-02-11T16:17:22.301Z,103353.75
2023-02-11T16:19:50.867Z,103348.63
2023-02-11T16:22:22.567Z,103350.56
2023-02-11T16:24:52.515Z,103354.69
2023-02-11T16:27:25.334Z,103358.16
2023-02-11T16:29:52.267Z,103363.34
2023-02-11T16:32:20.134Z,103363.25
2023-02-11T16:34:47.272Z,103363.25
2023-02-11T16:37:16.494Z,103364.00
2023-02-11T16:39:43.668Z,103373.41
2023-02-11T16:42:13.606Z,103376.72
2023-02-11T16:44:41.307Z,103380.13
2023-02-11T16:47:23.691Z,103377.59
2023-02-11T16:49:50.823Z,103378.41
2023-02-11T16:52:18.208Z,103378.22
2023-02-11T16:54:45.872Z,103388.63
2023-02-11T16:57:17.207Z,103380.97
2023-02-11T16:59:44.839Z,103383.81
2023-02-11T17:02:24.353Z,103388.78
2023-02-11T17:04:54.485Z,103383.44
2023-02-11T17:07:21.540Z,103394.63
2023-02-11T17:09:48.162Z,103402.50
2023-02-11T17:12:15.227Z,103394.69
2023-02-11T17:14:41.810Z,103402.38
2023-02-11T17:17:09.729Z,103409.22
2023-02-11T17:19:37.113Z,103402.38
2023-02-11T17:22:04.833Z,103403.66
2023-02-11T17:24:31.767Z,103411.25
2023-02-11T17:26:58.785Z,103409.34
2023-02-11T17:29:26.087Z,103405.81
2023-02-11T17:31:53.726Z,103399.06
2023-02-11T17:34:21.415Z,103407.47
2023-02-11T17:36:48.658Z,103408.28
2023-02-11T17:39:16.284Z,103408.28
2023-02-11T17:41:43.555Z,103405.81
2023-02-11T17:44:12.214Z,103406.34
2023-02-11T17:46:39.161Z,103408.97
2023-02-11T17:49:06.511Z,103417.75
2023-02-11T17:51:34.592Z,103411.00
2023-02-11T17:54:06.691Z,103407.34
2023-02-11T17:56:35.421Z,103412.41
2023-02-11T17:59:02.952Z,103412.53
2023-02-11T18:01:31.446Z,103421.16
2023-02-11T18:03:58.192Z,103429.63
2023-02-11T18:06:25.156Z,103434.09
2023-02-11T18:08:52.166Z,103445.41
2023-02-11T18:11:19.308Z,103452.28
2023-02-11T18:13:51.362Z,103454.50
2023-02-11T18:16:19.143Z,103464.06
2023-02-11T18:18:45.684Z,103458.59
2023-02-11T18:21:13.931Z,103467.13
2023-02-11T18:23:40.792Z,103461.91
2023-02-11T18:26:08.616Z,103455.72
2023-02-11T18:28:35.932Z,103454.78
2023-02-11T18:31:03.363Z,103454.78
2023-02-11T18:33:33.316Z,103464.25
2023-02-11T18:36:04.591Z,103458.97
2023-02-11T18:38:32.072Z,103457.19
2023-02-11T18:40:59.098Z,103458.84
2023-02-11T18:43:26.007Z,103463.28
2023-02-11T18:45:53.868Z,103465.69
2023-02-11T18:48:21.393Z,103469.03
2023-02-11T18:50:48.368Z,103460.53
2023-02-11T18:53:16.027Z,103462.25
2023-02-11T18:55:44.092Z,103467.31
2023-02-11T18:58:11.271Z,103472.59
2023-02-11T19:00:39.932Z,103476.97
2023-02-11T19:03:06.758Z,103476.97
2023-02-11T19:05:54.627Z,103483.97
2023-02-11T19:08:21.453Z,103490.69
2023-02-11T19:10:49.328Z,103482.94
2023-02-11T19:13:16.233Z,103489.16
2023-02-11T19:15:43.881Z,103488.91
2023-02-11T19:18:11.854Z,103492.31
2023-02-11T19:20:42.914Z,103497.66
2023-02-11T19:23:10.006Z,103502.72
2023-02-11T19:25:37.170Z,103500.13
2023-02-11T19:28:03.979Z,103493.06
2023-02-11T19:30:31.362Z,103501.78
2023-02-11T19:32:58.328Z,103503.69
2023-02-11T19:35:25.513Z,103506.31
2023-02-11T19:37:52.089Z,103507.66
2023-02-11T19:40:21.401Z,103502.44
2023-02-11T19:42:48.251Z,103513.75
2023-02-11T19:45:15.894Z,103512.84
2023-02-11T19:47:42.722Z,103513.00
2023-02-11T19:50:09.626Z,103515.47
2023-02-11T19:52:40.343Z,103522.50
2023-02-11T19:55:07.492Z,103526.72
2023-02-11T19:57:34.337Z,103526.72
2023-02-11T20:00:01.386Z,103530.13
2023-02-11T20:02:29.262Z,103532.63
2023-02-11T20:04:56.870Z,103530.78
2023-02-11T20:07:24.269Z,103533.53
2023-02-11T20:09:53.578Z,103530.13
2023-02-11T20:12:20.522Z,103535.19
2023-02-11T20:14:47.217Z,103542.00
2023-02-11T20:17:14.586Z,103549.00
2023-02-11T20:19:41.182Z,103547.22
2023-02-11T20:22:08.307Z,103548.06
2023-02-11T20:24:35.613Z,103543.66
2023-02-11T20:27:02.375Z,103547.22
2023-02-11T20:29:31.196Z,103544.59
2023-02-11T20:31:58.120Z,103541.81
2023-02-11T20:34:25.471Z,103544.44
2023-02-11T20:36:52.638Z,103545.44
2023-02-11T20:39:22.147Z,103548.84
2023-02-11T20:41:49.343Z,103554.97
2023-02-11T20:44:15.811Z,103558.34
2023-02-11T20:46:43.496Z,103566.09
2023-02-11T20:49:11.402Z,103559.91
2023-02-11T20:51:38.797Z,103560.88
2023-02-11T20:54:06.282Z,103565.06
2023-02-11T20:56:35.610Z,103562.34
2023-02-11T20:59:03.823Z,103564.28
2023-02-11T21:01:32.715Z,103568.75
2023-02-11T21:04:19.728Z,103573.03
2023-02-11T21:06:47.773Z,103579.00
2023-02-11T21:09:16.531Z,103588.66
2023-02-11T21:11:43.909Z,103588.84
2023-02-11T21:14:12.049Z,103594.88
2023-02-11T21:16:39.252Z,103602.69
2023-02-11T21:19:06.389Z,103598.28
2023-02-11T21:21:35.137Z,103600.88
2023-02-11T21:24:01.870Z,103595.50
2023-02-11T21:26:29.113Z,103591.13
2023-02-11T21:28:56.032Z,103588.50
2023-02-11T21:31:28.634Z,103584.00
2023-02-11T21:33:55.579Z,103583.16
2023-02-11T21:36:23.088Z,103586.63
2023-02-11T21:38:50.112Z,103592.91
2023-02-11T21:41:17.865Z,103586.75
2023-02-11T21:43:44.580Z,103588.38
2023-02-11T21:46:13.043Z,103588.38
2023-02-11T21:48:39.824Z,103588.38
2023-02-11T21:51:08.148Z,103588.31
2023-02-11T21:53:35.374Z,103593.56
2023-02-11T21:56:04.132Z,103600.56
2023-02-11T21:58:31.712Z,103605.03
2023-02-11T22:00:59.108Z,103604.44
2023-02-11T22:03:25.874Z,103602.38
2023-02-11T22:05:52.932Z,103603.41
2023-02-11T22:08:20.359Z,103597.81
2023-02-11T22:10:47.185Z,103594.28
2023-02-11T22:13:13.742Z,103591.81
2023-02-11T22:15:40.604Z,103588.22
2023-02-11T22:18:07.520Z,103591.66
2023-02-11T22:20:34.670Z,103591.66
2023-02-11T22:23:01.872Z,103588.09
2023-02-11T22:25:28.587Z,103600.13
2023-02-11T22:27:55.319Z,103599.38
2023-02-11T22:30:21.916Z,103595.22
2023-02-11T22:32:48.657Z,103595.28
2023-02-11T22:35:15.854Z,103591.72
2023-02-11T22:37:42.789Z,103590.03
2023-02-11T22:40:09.789Z,103596.88
2023-02-11T22:42:39.158Z,103597.69
2023-02-11T22:45:07.335Z,103600.44
2023-02-11T22:47:34.456Z,103600.34
2023-02-11T22:50:01.401Z,103600.28
2023-02-11T22:52:28.595Z,103600.28
2023-02-11T22:54:55.820Z,103600.44
2023-02-11T22:57:22.544Z,103602.22
2023-02-11T22:59:50.566Z,103609.03
2023-02-11T23:02:17.550Z,103612.63
2023-02-11T23:04:44.572Z,103602.94
2023-02-11T23:07:11.645Z,103605.47
2023-02-11T23:09:38.570Z,103604.81
2023-02-11T23:12:05.298Z,103614.38
2023-02-11T23:14:32.216Z,103602.22
2023-02-11T23:16:59.313Z,103614.38
2023-02-11T23:19:26.226Z,103614.38
2023-02-11T23:21:53.517Z,103620.47
2023-02-11T23:24:20.633Z,103622.34
2023-02-11T23:26:47.262Z,103626.59
2023-02-11T23:29:14.484Z,103637.13
2023-02-11T23:31:43.917Z,103638.84
2023-02-11T23:34:11.070Z,103624.94
2023-02-11T23:36:38.073Z,103633.56
2023-02-11T23:39:05.590Z,103629.03
2023-02-11T23:41:32.153Z,103640.41
2023-02-11T23:43:59.333Z,103642.94
2023-02-11T23:46:26.648Z,103641.75
2023-02-11T23:48:53.480Z,103636.56
2023-02-11T23:51:21.411Z,103638.31
2023-02-11T23:53:49.724Z,103633.28
2023-02-11T23:56:18.099Z,103636.84
2023-02-11T23:58:48.153Z,103638.63
